Time;durP1;ratioP1;P1;durP2;ratioP2;P2;SDS_P1;SDS_P2;PMS_P1;PMS_P2;Temp;Humidity;BMP_temperature;BMP_pressure;BME280_temperature;BME280_humidity;BME280_pressure;Samples;Min_cycle;Max_cycle;Signal;HPM_P1;HPM_P2
2022/03/29 00:02:22;;;;;;;14.37;9.17;;;;;;;9.56;nan;97917.03;5055668;28;20205;-72
2022/03/29 00:04:49;;;;;;;15.37;9.07;;;;;;;9.56;nan;97917.84;5056457;28;20216;-72
2022/03/29 00:07:15;;;;;;;14.50;8.63;;;;;;;9.53;nan;97912.97;5055324;28;20235;-72
2022/03/29 00:09:42;;;;;;;12.63;9.17;;;;;;;9.49;nan;97905.66;5055342;28;20205;-72
2022/03/29 00:12:08;;;;;;;14.23;9.07;;;;;;;9.46;nan;97898.94;5055514;28;20217;-72
2022/03/29 00:14:35;;;;;;;12.87;8.83;;;;;;;9.42;nan;97899.59;5055303;28;20231;-72
2022/03/29 00:17:01;;;;;;;14.87;9.83;;;;;;;9.41;nan;97898.78;5055412;28;20233;-72
2022/03/29 00:19:28;;;;;;;14.23;9.40;;;;;;;9.41;nan;97898.78;5055056;28;20210;-72
2022/03/29 00:21:54;;;;;;;14.30;9.00;;;;;;;9.37;nan;97894.13;5055042;28;20201;-73
2022/03/29 00:24:20;;;;;;;15.07;9.43;;;;;;;9.39;nan;97890.22;5054983;28;20212;-72
2022/03/29 00:26:47;;;;;;;11.50;8.70;;;;;;;9.34;nan;97883.94;5054903;28;20229;-72
2022/03/29 00:29:13;;;;;;;12.83;8.87;;;;;;;9.31;nan;97879.03;5054863;28;20729;-72
2022/03/29 00:31:39;;;;;;;16.13;9.30;;;;;;;9.30;nan;97874.78;5055024;28;20217;-72
2022/03/29 00:34:06;;;;;;;17.60;9.73;;;;;;;9.32;nan;97867.44;5054486;28;20215;-72
2022/03/29 00:36:32;;;;;;;11.40;8.80;;;;;;;9.28;nan;97869.69;5054941;28;20229;-72
2022/03/29 00:38:59;;;;;;;13.80;9.23;;;;;;;9.29;nan;97870.50;5055036;28;20211;-72
2022/03/29 00:41:25;;;;;;;14.77;8.87;;;;;;;9.28;nan;97872.31;5054954;28;20197;-72
2022/03/29 00:43:51;;;;;;;13.10;9.90;;;;;;;9.35;nan;97867.81;5055068;28;20217;-72
2022/03/29 00:46:20;;;;;;;15.57;9.57;;;;;;;9.30;nan;97864.16;5054717;28;20205;-72
2022/03/29 00:48:46;;;;;;;12.90;9.33;;;;;;;9.27;nan;97860.09;5054815;28;20297;-72
2022/03/29 00:51:13;;;;;;;14.37;9.53;;;;;;;9.30;nan;97853.56;5054883;28;20205;-72
2022/03/29 00:53:39;;;;;;;13.73;9.30;;;;;;;9.22;nan;97853.81;5054431;28;20664;-72
2022/03/29 00:56:06;;;;;;;12.00;8.77;;;;;;;9.21;nan;97855.66;5054699;28;20208;-72
2022/03/29 00:58:34;;;;;;;14.40;9.20;;;;;;;9.21;nan;97852.19;5054673;28;20211;-72
2022/03/29 01:01:01;;;;;;;13.60;9.03;;;;;;;9.25;nan;97850.75;5054715;28;20205;-73
2022/03/29 01:03:28;;;;;;;13.53;8.87;;;;;;;9.20;nan;97845.25;5054233;28;20209;-72
2022/03/29 01:05:54;;;;;;;13.80;8.93;;;;;;;9.18;nan;97842.00;5054835;28;20205;-72
2022/03/29 01:08:21;;;;;;;18.33;9.40;;;;;;;9.15;nan;97834.50;5054197;28;20229;-72
2022/03/29 01:10:47;;;;;;;11.20;8.63;;;;;;;9.12;nan;97830.44;5054506;28;20228;-72
2022/03/29 01:13:14;;;;;;;12.47;8.60;;;;;;;9.10;nan;97823.72;5054360;28;20229;-72
2022/03/29 01:15:41;;;;;;;12.13;9.23;;;;;;;9.13;nan;97831.22;5054038;28;20217;-72
2022/03/29 01:18:07;;;;;;;13.13;8.73;;;;;;;9.07;nan;97824.13;5054008;28;20236;-72
2022/03/29 01:20:34;;;;;;;13.27;9.30;;;;;;;9.08;nan;97810.66;5053899;28;20214;-72
2022/03/29 01:23:02;;;;;;;12.87;8.97;;;;;;;9.09;nan;97809.63;5054279;28;20212;-72
2022/03/29 01:25:40;;;;;;;15.83;9.90;;;;;;;9.03;nan;97804.38;5054094;28;20668;-73
2022/03/29 01:28:07;;;;;;;17.53;9.30;;;;;;;9.02;nan;97806.25;5054894;28;20231;-73
2022/03/29 01:30:34;;;;;;;13.57;9.30;;;;;;;9.01;nan;97798.50;5054073;28;20201;-73
2022/03/29 01:33:02;;;;;;;11.60;8.97;;;;;;;9.01;nan;97801.16;5053738;28;20217;-72
2022/03/29 01:35:30;;;;;;;13.57;9.10;;;;;;;9.00;nan;97789.72;5054099;28;20205;-73
2022/03/29 01:37:57;;;;;;;14.03;8.87;;;;;;;9.01;nan;97793.97;5053970;28;20232;-73
2022/03/29 01:40:26;;;;;;;13.53;8.63;;;;;;;8.97;nan;97778.75;5053740;28;20201;-72
2022/03/29 01:42:58;;;;;;;13.57;9.03;;;;;;;8.93;nan;97780.19;5053782;28;20197;-73
2022/03/29 01:45:27;;;;;;;11.47;8.90;;;;;;;8.95;nan;97778.13;5052943;28;20574;-73
2022/03/29 01:47:54;;;;;;;11.43;8.43;;;;;;;8.95;nan;97770.16;5053345;28;20236;-72
2022/03/29 01:50:21;;;;;;;12.17;8.37;;;;;;;8.93;nan;97766.94;5053700;28;20570;-73
2022/03/29 01:52:49;;;;;;;12.60;8.13;;;;;;;8.90;nan;97765.53;5053228;28;20778;-73
2022/03/29 01:55:17;;;;;;;11.10;8.83;;;;;;;8.90;nan;97768.19;5053570;28;20569;-72
2022/03/29 01:57:45;;;;;;;12.07;8.60;;;;;;;8.93;nan;97758.97;5053178;28;20237;-72
2022/03/29 02:02:57;;;;;;;13.53;8.47;;;;;;;8.88;nan;97753.53;5053239;28;20184;-73
2022/03/29 02:05:23;;;;;;;13.30;8.97;;;;;;;8.87;nan;97758.00;5053363;28;20588;-73
2022/03/29 02:07:51;;;;;;;12.07;8.60;;;;;;;8.82;nan;97749.88;5053637;28;20232;-72
2022/03/29 02:10:19;;;;;;;11.03;8.67;;;;;;;8.82;nan;97744.56;5053412;28;20205;-72
2022/03/29 02:12:46;;;;;;;11.93;8.50;;;;;;;8.82;nan;97746.44;5053304;28;20228;-73
2022/03/29 02:15:13;;;;;;;13.20;9.00;;;;;;;8.76;nan;97745.44;5053034;28;20547;-72
2022/03/29 02:17:41;;;;;;;11.43;8.13;;;;;;;8.75;nan;97746.47;5053273;28;20247;-72
2022/03/29 02:20:08;;;;;;;14.73;9.27;;;;;;;8.71;nan;97741.81;5053316;28;20231;-73
2022/03/29 02:22:35;;;;;;;13.27;8.50;;;;;;;8.69;nan;97738.56;5053302;28;20197;-73
2022/03/29 02:25:01;;;;;;;11.60;8.83;;;;;;;8.66;nan;97736.34;5052949;28;20672;-73
2022/03/29 02:27:28;;;;;;;13.07;8.80;;;;;;;8.65;nan;97729.44;5053159;28;20228;-73
2022/03/29 02:29:54;;;;;;;12.87;8.67;;;;;;;8.60;nan;97731.91;5053203;28;20212;-72
2022/03/29 02:32:21;;;;;;;12.70;8.40;;;;;;;8.63;nan;97723.50;5053058;28;20221;-73
2022/03/29 02:34:47;;;;;;;11.37;8.90;;;;;;;8.59;nan;97724.97;5053207;28;20283;-73
2022/03/29 02:37:13;;;;;;;13.50;8.37;;;;;;;8.62;nan;97724.53;5053077;28;20225;-72
2022/03/29 02:39:40;;;;;;;14.23;8.40;;;;;;;8.66;nan;97723.09;5053297;28;20205;-72
2022/03/29 02:42:08;;;;;;;16.03;8.67;;;;;;;8.63;nan;97723.50;5053106;28;20201;-72
2022/03/29 02:44:34;;;;;;;15.00;8.87;;;;;;;8.67;nan;97722.06;5052974;28;20206;-73
2022/03/29 02:47:01;;;;;;;10.43;8.50;;;;;;;8.64;nan;97717.22;5053013;28;20581;-72
2022/03/29 02:49:27;;;;;;;11.87;8.63;;;;;;;8.57;nan;97719.06;5053055;28;20201;-72
2022/03/29 02:51:54;;;;;;;12.17;8.73;;;;;;;8.51;nan;97717.28;5052951;28;20221;-72
2022/03/29 02:54:20;;;;;;;14.03;8.77;;;;;;;8.50;nan;97720.94;5052985;28;20201;-72
2022/03/29 02:56:47;;;;;;;12.20;8.53;;;;;;;8.47;nan;97718.75;5055150;28;20240;-72
2022/03/29 02:59:15;;;;;;;10.73;7.93;;;;;;;8.41;nan;97711.66;5056819;28;20201;-73
2022/03/29 03:01:41;;;;;;;10.30;8.37;;;;;;;8.39;nan;97711.88;5056457;28;20672;-72
2022/03/29 03:04:08;;;;;;;15.23;8.93;;;;;;;8.40;nan;97708.19;5056709;28;20291;-72
2022/03/29 03:06:35;;;;;;;13.23;8.40;;;;;;;8.32;nan;97705.78;5056561;28;20283;-72
2022/03/29 03:09:02;;;;;;;12.57;8.40;;;;;;;8.28;nan;97703.78;5056645;28;20209;-72
2022/03/29 03:11:28;;;;;;;13.17;8.27;;;;;;;8.29;nan;97706.19;5056268;28;20747;-72
2022/03/29 03:13:55;;;;;;;13.97;8.67;;;;;;;8.23;nan;97704.41;5056065;28;20591;-72
2022/03/29 03:16:21;;;;;;;16.40;8.00;;;;;;;8.20;nan;97701.34;5056076;28;20668;-72
2022/03/29 03:18:47;;;;;;;12.67;8.93;;;;;;;8.19;nan;97702.38;5056063;28;20583;-72
2022/03/29 03:21:14;;;;;;;12.97;8.90;;;;;;;8.18;nan;97706.03;5055946;28;20216;-73
2022/03/29 03:23:40;;;;;;;10.60;8.00;;;;;;;8.20;nan;97696.06;5055865;28;20563;-72
2022/03/29 03:26:07;;;;;;;14.87;9.33;;;;;;;8.22;nan;97701.97;5056313;28;20205;-72
2022/03/29 03:28:34;;;;;;;15.47;8.37;;;;;;;8.17;nan;97693.81;5055936;28;20205;-72
2022/03/29 03:31:01;;;;;;;13.10;8.13;;;;;;;8.24;nan;97697.28;5056189;28;20278;-72
2022/03/29 03:33:27;;;;;;;14.00;9.00;;;;;;;8.27;nan;97691.56;5056036;28;20225;-72
2022/03/29 03:35:54;;;;;;;14.33;8.60;;;;;;;8.22;nan;97688.72;5055748;28;20212;-72
2022/03/29 03:38:21;;;;;;;13.07;8.73;;;;;;;8.25;nan;97694.44;5055444;28;20295;-72
2022/03/29 03:40:47;;;;;;;17.83;8.70;;;;;;;8.19;nan;97684.66;5055651;28;20209;-73
2022/03/29 03:43:13;;;;;;;14.93;9.17;;;;;;;8.20;nan;97680.19;5055403;28;20676;-73
2022/03/29 03:45:40;;;;;;;14.47;8.87;;;;;;;8.14;nan;97679.19;5055693;28;20296;-72
2022/03/29 03:48:07;;;;;;;13.40;8.90;;;;;;;8.18;nan;97687.50;5055611;28;20227;-73
2022/03/29 03:50:33;;;;;;;14.93;8.43;;;;;;;8.12;nan;97688.34;5055686;28;20308;-72
2022/03/29 03:53:00;;;;;;;21.93;9.40;;;;;;;8.21;nan;97684.47;5055352;28;20229;-72
2022/03/29 03:55:27;;;;;;;16.67;9.03;;;;;;;8.05;nan;97688.38;5055574;28;20213;-72
2022/03/29 03:57:54;;;;;;;16.63;9.57;;;;;;;8.00;nan;97685.56;5055123;28;20237;-73
2022/03/29 04:00:21;;;;;;;15.50;9.67;;;;;;;8.00;nan;97690.88;5055660;28;20212;-72
2022/03/29 04:02:49;;;;;;;15.00;9.87;;;;;;;7.90;nan;97687.03;5055094;28;20268;-72
2022/03/29 04:05:16;;;;;;;14.17;8.73;;;;;;;7.85;nan;97685.03;5055484;28;20278;-72
2022/03/29 04:07:43;;;;;;;12.30;9.40;;;;;;;7.80;nan;97684.88;5046605;28;20217;-72
2022/03/29 04:10:10;;;;;;;12.13;9.17;;;;;;;7.77;nan;97676.50;5045841;28;20668;-72
2022/03/29 04:12:36;;;;;;;13.40;9.30;;;;;;;7.73;nan;97680.59;5044041;28;20214;-73
2022/03/29 04:15:05;;;;;;;10.70;8.77;;;;;;;7.61;nan;97685.72;5044913;28;20201;-72
2022/03/29 04:17:33;;;;;;;11.37;9.40;;;;;;;7.52;nan;97678.25;5045951;28;20304;-72
2022/03/29 04:20:01;;;;;;;15.27;9.30;;;;;;;7.52;nan;97670.31;5044363;28;20195;-72
2022/03/29 04:22:27;;;;;;;17.90;9.73;;;;;;;7.42;nan;97676.03;5043831;28;20540;-72
2022/03/29 04:24:54;;;;;;;12.93;8.93;;;;;;;7.42;nan;97664.66;5045842;28;20193;-73
2022/03/29 04:27:20;;;;;;;12.63;9.40;;;;;;;7.42;nan;97669.94;5044118;28;20217;-73
2022/03/29 04:29:46;;;;;;;17.37;10.20;;;;;;;7.42;nan;97664.66;5044137;28;20202;-72
2022/03/29 04:32:13;;;;;;;12.47;9.37;;;;;;;7.39;nan;97668.53;5045321;28;20232;-72
2022/03/29 04:34:40;;;;;;;13.33;8.97;;;;;;;7.42;nan;97659.38;5043776;28;20202;-72
2022/03/29 04:37:06;;;;;;;15.07;9.57;;;;;;;7.49;nan;97654.84;5044244;28;20229;-72
2022/03/29 04:39:33;;;;;;;16.63;9.50;;;;;;;7.48;nan;97648.78;5044936;28;20244;-72
2022/03/29 04:41:59;;;;;;;18.07;10.00;;;;;;;7.51;nan;97658.13;5042178;28;20198;-72
2022/03/29 04:44:26;;;;;;;14.57;9.63;;;;;;;7.51;nan;97653.63;5044117;28;20201;-72
2022/03/29 04:46:52;;;;;;;12.10;9.33;;;;;;;7.47;nan;97651.63;5043392;28;20231;-72
2022/03/29 04:49:18;;;;;;;12.43;9.43;;;;;;;7.49;nan;97649.56;5045018;28;20655;-72
2022/03/29 04:51:45;;;;;;;14.80;9.20;;;;;;;7.48;nan;97648.78;5043156;28;20205;-72
2022/03/29 04:54:11;;;;;;;16.83;9.90;;;;;;;7.50;nan;97648.53;5043119;28;20217;-72
2022/03/29 04:56:38;;;;;;;13.00;9.77;;;;;;;7.49;nan;97641.63;5044862;28;20229;-72
2022/03/29 04:59:04;;;;;;;17.87;9.90;;;;;;;7.47;nan;97643.69;5043593;28;20202;-72
2022/03/29 05:01:32;;;;;;;17.73;9.43;;;;;;;7.49;nan;97646.91;5043488;28;20207;-72
2022/03/29 05:03:58;;;;;;;15.80;9.13;;;;;;;7.51;nan;97645.69;5044765;28;20193;-72
2022/03/29 05:06:25;;;;;;;15.93;9.03;;;;;;;7.45;nan;97648.34;5036154;28;20252;-72
2022/03/29 05:08:51;;;;;;;13.43;9.00;;;;;;;7.43;nan;97643.28;5033900;28;20296;-72
2022/03/29 05:11:17;;;;;;;19.37;9.43;;;;;;;7.42;nan;97639.00;5033711;28;20213;-72
2022/03/29 05:13:44;;;;;;;14.97;9.53;;;;;;;7.41;nan;97634.75;5033648;28;20230;-72
2022/03/29 05:16:10;;;;;;;13.43;9.00;;;;;;;7.46;nan;97639.44;5033191;28;20209;-72
2022/03/29 05:18:37;;;;;;;13.40;9.57;;;;;;;7.38;nan;97637.81;5033590;28;20210;-72
2022/03/29 05:21:04;;;;;;;14.53;9.63;;;;;;;7.32;nan;97638.66;5033896;28;20206;-72
2022/03/29 05:23:30;;;;;;;13.43;8.50;;;;;;;7.35;nan;97632.94;5033545;28;20198;-72
2022/03/29 05:25:56;;;;;;;16.83;9.00;;;;;;;7.35;nan;97637.41;5033688;28;20218;-72
2022/03/29 05:28:23;;;;;;;17.47;9.37;;;;;;;7.42;nan;97648.78;5032920;28;20225;-72
2022/03/29 05:30:50;;;;;;;16.77;9.47;;;;;;;7.41;nan;97642.69;5033404;28;20206;-72
2022/03/29 05:33:18;;;;;;;15.40;9.00;;;;;;;7.42;nan;97638.22;5033219;28;20275;-72
2022/03/29 05:35:45;;;;;;;13.30;8.80;;;;;;;7.41;nan;97645.31;5033033;28;20214;-72
2022/03/29 05:38:12;;;;;;;12.93;9.47;;;;;;;7.46;nan;97644.72;5032987;28;20225;-72
2022/03/29 05:40:39;;;;;;;15.83;9.20;;;;;;;7.51;nan;97647.53;5033321;28;20209;-72
2022/03/29 05:43:11;;;;;;;17.27;10.00;;;;;;;7.57;nan;97644.03;5033164;28;20206;-72
2022/03/29 05:45:39;;;;;;;18.23;9.33;;;;;;;7.59;nan;97642.81;5033169;28;20592;-72
2022/03/29 05:50:52;;;;;;;15.60;9.17;;;;;;;7.72;nan;97628.72;5032900;28;20176;-72
2022/03/29 05:53:18;;;;;;;15.57;9.70;;;;;;;7.80;nan;97631.13;5032974;28;20232;-72
2022/03/29 05:55:48;;;;;;;14.10;8.83;;;;;;;7.91;nan;97633.91;5033048;28;20288;-72
2022/03/29 05:58:16;;;;;;;16.80;9.23;;;;;;;7.99;nan;97633.66;5032629;28;20716;-72
2022/03/29 06:00:43;;;;;;;18.23;9.50;;;;;;;7.98;nan;97637.34;5032928;28;20763;-72
2022/03/29 06:03:10;;;;;;;16.27;8.87;;;;;;;8.03;nan;97641.97;5032958;28;20514;-72
2022/03/29 06:05:41;;;;;;;16.33;10.03;;;;;;;8.11;nan;97642.53;5032626;28;20280;-72
2022/03/29 06:08:08;;;;;;;14.37;9.80;;;;;;;8.17;nan;97635.56;5032978;28;20293;-72
2022/03/29 06:10:34;;;;;;;16.33;9.43;;;;;;;8.25;nan;97644.13;5033246;28;20202;-72
2022/03/29 06:13:00;;;;;;;18.43;9.70;;;;;;;8.30;nan;97633.69;5032777;28;20222;-72
2022/03/29 06:15:27;;;;;;;17.43;9.23;;;;;;;8.32;nan;97641.44;5032840;28;20202;-72
2022/03/29 06:17:53;;;;;;;18.60;9.97;;;;;;;8.34;nan;97634.06;5032763;28;20232;-72
2022/03/29 06:20:20;;;;;;;14.77;8.80;;;;;;;8.41;nan;97638.28;5032962;28;20210;-72
2022/03/29 06:22:46;;;;;;;16.00;9.47;;;;;;;8.47;nan;97637.41;5032111;28;20202;-72
2022/03/29 06:25:13;;;;;;;15.37;8.97;;;;;;;8.58;nan;97646.50;5032110;28;20202;-72
2022/03/29 06:27:41;;;;;;;16.43;9.87;;;;;;;8.67;nan;97643.38;5032085;28;20226;-72
2022/03/29 06:30:08;;;;;;;14.97;9.57;;;;;;;8.78;nan;97641.88;5032564;28;20210;-71
2022/03/29 06:32:35;;;;;;;18.17;10.50;;;;;;;8.86;nan;97649.53;5035708;28;20691;-70
2022/03/29 06:35:04;;;;;;;14.47;9.77;;;;;;;8.96;nan;97655.16;5036180;28;20202;-71
2022/03/29 06:37:31;;;;;;;20.17;10.40;;;;;;;9.00;nan;97649.19;5036278;28;20778;-71
2022/03/29 06:39:57;;;;;;;14.13;9.47;;;;;;;9.02;nan;97652.47;5034688;28;20214;-71
2022/03/29 06:42:24;;;;;;;15.10;9.60;;;;;;;9.15;nan;97643.56;5034661;28;20210;-72
2022/03/29 06:44:50;;;;;;;15.13;10.30;;;;;;;9.15;nan;97648.84;5035104;28;20676;-71
2022/03/29 06:47:17;;;;;;;19.83;10.23;;;;;;;9.14;nan;97652.53;5035190;28;20245;-71
2022/03/29 06:49:43;;;;;;;15.73;9.10;;;;;;;9.17;nan;97652.09;5035723;28;20205;-71
2022/03/29 06:52:10;;;;;;;18.73;10.17;;;;;;;9.33;nan;97657.63;5035799;28;20210;-71
2022/03/29 06:54:37;;;;;;;16.67;9.90;;;;;;;9.55;nan;97663.31;5036348;28;20230;-71
2022/03/29 06:57:05;;;;;;;14.97;9.70;;;;;;;9.75;nan;97663.88;5036244;28;20654;-71
2022/03/29 06:59:31;;;;;;;15.57;9.10;;;;;;;9.46;nan;97668.09;5036230;28;20562;-71
2022/03/29 07:01:58;;;;;;;18.23;9.63;;;;;;;9.59;nan;97659.19;5036483;28;20210;-71
2022/03/29 07:04:24;;;;;;;18.27;10.37;;;;;;;9.54;nan;97661.66;5036296;28;20584;-71
2022/03/29 07:06:50;;;;;;;13.53;10.27;;;;;;;9.53;nan;97668.03;5036448;28;20584;-72
2022/03/29 07:12:00;;;;;;;22.63;10.67;;;;;;;9.70;nan;97661.09;5036069;28;20682;-72
2022/03/29 07:14:27;;;;;;;24.03;10.33;;;;;;;9.65;nan;97658.28;5036028;28;20230;-71
2022/03/29 07:16:53;;;;;;;16.13;10.00;;;;;;;9.74;nan;97665.72;5036038;28;20228;-71
2022/03/29 07:19:20;;;;;;;13.27;10.37;;;;;;;9.80;nan;97653.41;5035800;28;20216;-71
2022/03/29 07:21:48;;;;;;;19.93;10.20;;;;;;;9.79;nan;97651.78;5035816;28;20209;-71
2022/03/29 07:24:15;;;;;;;14.37;10.10;;;;;;;9.82;nan;97649.50;5035501;28;20228;-71
2022/03/29 07:26:41;;;;;;;19.03;10.47;;;;;;;9.94;nan;97652.19;5035958;28;20248;-71
2022/03/29 07:29:07;;;;;;;21.90;10.53;;;;;;;10.09;nan;97645.47;5036208;28;20218;-71
2022/03/29 07:31:34;;;;;;;16.07;10.10;;;;;;;10.20;nan;97641.25;5035834;28;20241;-72
2022/03/29 07:34:00;;;;;;;17.33;10.27;;;;;;;10.22;nan;97645.31;5035944;28;20226;-72
2022/03/29 07:36:27;;;;;;;16.83;10.50;;;;;;;10.42;nan;97645.00;5036145;28;20237;-72
2022/03/29 07:38:54;;;;;;;19.77;10.80;;;;;;;10.72;nan;97643.09;5035544;28;20212;-72
2022/03/29 07:41:20;;;;;;;14.97;9.70;;;;;;;10.87;nan;97646.13;5035472;28;20649;-73
2022/03/29 07:43:47;;;;;;;20.03;10.73;;;;;;;10.94;nan;97642.31;5033883;28;20206;-72
2022/03/29 07:46:13;;;;;;;15.53;10.57;;;;;;;11.00;nan;97643.25;5035574;28;20216;-72
2022/03/29 07:48:40;;;;;;;16.00;11.20;;;;;;;11.08;nan;97641.03;5035376;28;20730;-72
2022/03/29 07:51:06;;;;;;;17.40;11.37;;;;;;;11.05;nan;97644.16;5035537;28;20297;-71
2022/03/29 07:53:33;;;;;;;16.57;10.70;;;;;;;11.02;nan;97631.34;5035227;28;20237;-72
2022/03/29 07:56:00;;;;;;;17.40;10.17;;;;;;;11.00;nan;97640.59;5035530;28;20213;-72
2022/03/29 07:58:26;;;;;;;18.93;11.53;;;;;;;11.08;nan;97640.22;5035155;28;20622;-72
2022/03/29 08:00:53;;;;;;;21.40;10.73;;;;;;;11.08;nan;97632.22;5035424;28;20213;-72
2022/03/29 08:03:21;;;;;;;20.83;10.80;;;;;;;11.33;nan;97632.81;5035047;28;20699;-72
2022/03/29 08:05:49;;;;;;;16.20;11.03;;;;;;;11.34;nan;97629.09;5035331;28;20237;-72
2022/03/29 08:08:16;;;;;;;18.50;11.03;;;;;;;11.25;nan;97635.03;5035356;28;20260;-72
2022/03/29 08:10:45;;;;;;;14.53;10.60;;;;;;;11.45;nan;97630.13;5035048;28;20206;-72
2022/03/29 08:13:11;;;;;;;21.27;10.93;;;;;;;11.62;nan;97628.38;5035296;28;20272;-72
2022/03/29 08:15:43;;;;;;;15.73;10.93;;;;;;;11.67;nan;97629.28;5035356;28;20206;-72
2022/03/29 08:18:09;;;;;;;18.23;10.87;;;;;;;11.85;nan;97626.44;5034953;28;20603;-72
2022/03/29 08:20:38;;;;;;;16.73;11.47;;;;;;;12.12;nan;97634.69;5034956;28;20669;-72
2022/03/29 08:23:06;;;;;;;28.53;11.07;;;;;;;12.06;nan;97631.13;5034969;28;20313;-72
2022/03/29 08:25:35;;;;;;;20.10;12.37;;;;;;;12.17;nan;97632.91;5035227;28;20202;-72
2022/03/29 08:28:02;;;;;;;17.20;11.60;;;;;;;12.67;nan;97638.31;5034935;28;20255;-71
2022/03/29 08:30:30;;;;;;;16.73;11.90;;;;;;;12.32;nan;97635.88;5034696;28;20215;-72
2022/03/29 08:32:57;;;;;;;13.83;11.10;;;;;;;12.44;nan;97643.81;5034531;28;20665;-72
2022/03/29 08:35:24;;;;;;;16.40;12.37;;;;;;;12.53;nan;97645.03;5034758;28;20275;-71
2022/03/29 08:37:51;;;;;;;24.80;12.17;;;;;;;12.53;nan;97643.16;5034702;28;20630;-72
2022/03/29 08:40:22;;;;;;;20.10;12.40;;;;;;;12.55;nan;97646.41;5034681;28;20204;-72
2022/03/29 08:42:54;;;;;;;20.17;12.00;;;;;;;12.89;nan;97640.00;5034732;28;20189;-71
2022/03/29 08:45:30;;;;;;;18.67;11.93;;;;;;;13.10;nan;97639.31;5034719;28;20209;-71
2022/03/29 08:48:01;;;;;;;20.03;11.90;;;;;;;13.45;nan;97628.31;5034597;28;20257;-72
2022/03/29 08:50:36;;;;;;;16.67;11.43;;;;;;;12.90;nan;97628.31;5034956;28;20220;-71
2022/03/29 08:53:03;;;;;;;18.27;12.07;;;;;;;13.39;nan;97624.75;5033916;28;20527;-72
2022/03/29 08:55:29;;;;;;;16.47;12.00;;;;;;;13.15;nan;97630.59;5033970;28;20218;-72
2022/03/29 08:57:56;;;;;;;21.47;13.07;;;;;;;13.20;nan;97631.44;5034051;28;20237;-72
2022/03/29 09:00:24;;;;;;;17.33;11.77;;;;;;;13.18;nan;97635.41;5033876;28;20215;-72
2022/03/29 09:02:51;;;;;;;16.20;12.30;;;;;;;13.26;nan;97635.81;5034098;28;20228;-72
2022/03/29 09:05:22;;;;;;;20.23;12.47;;;;;;;13.23;nan;97635.47;5034128;28;20198;-72
2022/03/29 09:07:53;;;;;;;21.93;12.83;;;;;;;13.23;nan;97630.97;5033975;28;20260;-73
2022/03/29 09:10:44;;;;;;;22.43;11.87;;;;;;;13.30;nan;97631.56;5034055;28;20579;-73
2022/03/29 09:13:31;;;;;;;22.30;11.40;;;;;;;13.46;nan;97625.41;5033500;28;20945;-72
2022/03/29 09:16:00;;;;;;;16.87;12.00;;;;;;;13.45;nan;97617.63;5033725;28;20186;-72
2022/03/29 09:18:27;;;;;;;20.73;13.00;;;;;;;14.01;nan;97623.41;5032540;28;20276;-71
2022/03/29 09:21:39;;;;;;;19.90;12.17;;;;;;;13.72;nan;97616.66;5034063;28;20213;-71
2022/03/29 09:24:15;;;;;;;17.70;12.40;;;;;;;13.82;nan;97621.28;4972682;28;20204;-72
2022/03/29 09:26:50;;;;;;;16.90;12.30;;;;;;;13.96;nan;97614.50;5029886;28;20271;-72
2022/03/29 09:29:22;;;;;;;19.20;12.53;;;;;;;13.95;nan;97619.06;5033602;28;20186;-72
2022/03/29 09:32:12;;;;;;;16.63;11.73;;;;;;;14.05;nan;97610.31;5033646;28;20309;-72
2022/03/29 09:34:38;;;;;;;22.50;13.20;;;;;;;14.33;nan;97612.81;5033596;28;20261;-72
2022/03/29 09:37:06;;;;;;;24.17;12.47;;;;;;;14.58;nan;97610.34;5033583;28;20229;-72
2022/03/29 09:39:44;;;;;;;18.93;13.00;;;;;;;14.69;nan;97604.00;5033092;28;20212;-72
2022/03/29 09:42:15;;;;;;;24.17;13.27;;;;;;;14.93;nan;97602.59;5033385;28;20296;-72
2022/03/29 09:44:45;;;;;;;20.37;13.33;;;;;;;14.89;nan;97601.50;5033585;28;20218;-71
2022/03/29 09:47:14;;;;;;;23.60;12.97;;;;;;;15.13;nan;97592.84;5033378;28;20574;-72
2022/03/29 09:50:06;;;;;;;22.03;12.97;;;;;;;15.54;nan;97592.00;5033021;28;20695;-72
2022/03/29 09:52:37;;;;;;;20.40;13.40;;;;;;;16.22;nan;97593.56;5033369;28;20194;-73
2022/03/29 09:55:13;;;;;;;21.37;13.37;;;;;;;15.86;nan;97587.31;5032877;28;20696;-72
2022/03/29 09:57:52;;;;;;;19.30;12.13;;;;;;;15.76;nan;97584.59;5033079;28;20267;-72
2022/03/29 10:00:32;;;;;;;20.67;13.00;;;;;;;16.02;nan;97583.59;5033184;28;20190;-72
2022/03/29 10:03:00;;;;;;;21.37;12.50;;;;;;;16.22;nan;97572.91;5032884;28;20664;-72
2022/03/29 10:05:27;;;;;;;17.37;12.27;;;;;;;16.66;nan;97573.25;5032735;28;20212;-72
2022/03/29 10:09:25;;;;;;;14.90;12.27;;;;;;;16.01;nan;97568.56;5032675;28;20730;-73
2022/03/29 10:10:46;;;;;;;17.87;12.80;;;;;;;16.22;nan;97566.72;5041066;28;20236;-72
2022/03/29 10:13:13;;;;;;;19.70;12.53;;;;;;;16.60;nan;97556.31;5051360;28;20635;-72
2022/03/29 10:15:41;;;;;;;20.20;12.73;;;;;;;16.43;nan;97553.13;5052935;28;20221;-72
2022/03/29 10:18:08;;;;;;;23.47;12.40;;;;;;;15.95;nan;97544.69;5052881;28;20247;-73
2022/03/29 10:20:36;;;;;;;23.97;12.33;;;;;;;16.17;nan;97539.91;5052824;28;20215;-73
2022/03/29 10:23:03;;;;;;;17.57;12.60;;;;;;;16.52;nan;97537.28;5052690;28;20201;-72
2022/03/29 10:25:31;;;;;;;19.57;11.90;;;;;;;16.45;nan;97529.50;5052789;28;20207;-72
2022/03/29 10:28:00;;;;;;;18.67;12.90;;;;;;;16.42;nan;97529.25;5052531;28;20310;-72
2022/03/29 10:30:40;;;;;;;23.03;12.60;;;;;;;16.53;nan;97520.94;5052867;28;20209;-72
2022/03/29 10:33:23;;;;;;;16.40;12.60;;;;;;;16.80;nan;97513.38;5052855;28;20220;-72
2022/03/29 10:36:01;;;;;;;24.53;12.70;;;;;;;16.16;nan;97524.91;5052449;28;20222;-72
2022/03/29 10:38:46;;;;;;;19.60;11.97;;;;;;;16.22;nan;97523.81;5052439;28;20232;-71
2022/03/29 10:41:28;;;;;;;17.97;11.47;;;;;;;16.79;nan;97511.75;5052721;28;20197;-74
2022/03/29 10:44:08;;;;;;;21.33;12.97;;;;;;;16.70;nan;97502.63;5052714;28;20257;-73
2022/03/29 10:46:38;;;;;;;17.63;12.60;;;;;;;17.01;nan;97504.19;5052279;28;20721;-72
2022/03/29 10:49:32;;;;;;;28.63;21.13;;;;;;;16.71;nan;97506.94;5052727;28;20213;-72
2022/03/29 10:52:04;;;;;;;19.60;12.90;;;;;;;16.85;nan;97493.75;5049852;28;20228;-72
2022/03/29 10:54:41;;;;;;;19.23;12.47;;;;;;;17.52;nan;97489.53;5052494;28;20225;-73
2022/03/29 10:57:08;;;;;;;18.73;13.00;;;;;;;17.33;nan;97477.75;5051820;28;20723;-72
2022/03/29 10:59:38;;;;;;;16.23;12.77;;;;;;;17.46;nan;97476.38;5052225;28;20639;-72
2022/03/29 11:02:14;;;;;;;22.10;12.80;;;;;;;16.90;nan;97464.19;5052356;28;20194;-71
2022/03/29 11:05:08;;;;;;;22.13;14.00;;;;;;;17.27;nan;97454.69;5052468;28;20185;-71
2022/03/29 11:07:41;;;;;;;21.40;13.10;;;;;;;17.55;nan;97447.84;5052049;28;20251;-70
2022/03/29 11:10:19;;;;;;;18.77;13.93;;;;;;;17.51;nan;97444.91;5052310;28;20237;-71
2022/03/29 11:13:01;;;;;;;25.50;14.27;;;;;;;17.28;nan;97432.09;5042655;28;20201;-71
2022/03/29 11:15:28;;;;;;;16.17;12.77;;;;;;;17.29;nan;97431.00;5032197;28;20539;-72
2022/03/29 11:17:58;;;;;;;15.67;12.03;;;;;;;17.89;nan;97427.19;5035137;28;20221;-72
2022/03/29 11:20:32;;;;;;;16.90;11.83;;;;;;;18.00;nan;97432.22;5036295;28;20735;-72
2022/03/29 11:23:04;;;;;;;15.70;11.20;;;;;;;17.17;nan;97438.59;5036194;28;20206;-72
2022/03/29 11:25:38;;;;;;;16.63;13.37;;;;;;;17.19;nan;97443.72;5036008;28;20202;-72
2022/03/29 11:28:09;;;;;;;15.37;12.30;;;;;;;17.26;nan;97434.25;5035152;28;20275;-71
2022/03/29 11:30:36;;;;;;;22.23;13.07;;;;;;;17.55;nan;97442.47;5035838;28;20221;-72
2022/03/29 11:33:05;;;;;;;18.30;12.43;;;;;;;17.50;nan;97442.50;5035899;28;20209;-72
2022/03/29 11:35:33;;;;;;;16.10;12.40;;;;;;;17.72;nan;97430.25;5035501;28;20655;-72
2022/03/29 11:38:17;;;;;;;16.80;12.10;;;;;;;17.11;nan;97434.34;5035789;28;20222;-72
2022/03/29 11:40:44;;;;;;;19.40;12.03;;;;;;;16.98;nan;97428.75;5035640;28;20264;-72
2022/03/29 11:43:12;;;;;;;20.27;13.17;;;;;;;16.94;nan;97420.44;5035673;28;20213;-72
2022/03/29 11:45:48;;;;;;;21.10;13.60;;;;;;;17.39;nan;97422.94;5035834;28;20263;-73
2022/03/29 11:48:19;;;;;;;24.07;13.13;;;;;;;17.46;nan;97418.06;5035653;28;20279;-72
2022/03/29 11:50:51;;;;;;;17.70;12.77;;;;;;;17.26;nan;97415.47;5035695;28;20211;-73
2022/03/29 11:53:30;;;;;;;20.00;14.07;;;;;;;17.00;nan;97413.16;5035631;28;20186;-72
2022/03/29 11:56:03;;;;;;;19.20;13.57;;;;;;;17.21;nan;97412.81;5035396;28;20210;-71
2022/03/29 11:58:33;;;;;;;17.67;12.87;;;;;;;17.33;nan;97410.56;5035387;28;20696;-71
2022/03/29 12:01:24;;;;;;;20.00;12.83;;;;;;;17.38;nan;97396.31;5035528;28;20202;-72